createdAt,value
2022-08-27T00:01:22.262Z,90.50
2022-08-27T00:03:50.240Z,89.60
2022-08-27T00:06:21.597Z,83.50
2022-08-27T00:08:49.061Z,81.40
2022-08-27T00:11:17.883Z,96.72
2022-08-27T00:13:46.529Z,79.05
2022-08-27T00:16:16.187Z,89.78
2022-08-27T00:18:46.629Z,90.80
2022-08-27T00:21:16.650Z,80.68
2022-08-27T00:23:43.887Z,79.40
2022-08-27T00:26:11.778Z,84.07
2022-08-27T00:28:39.866Z,99.70
2022-08-27T00:31:06.805Z,84.93
2022-08-27T00:33:33.972Z,80.50
2022-08-27T00:36:02.323Z,81.40
2022-08-27T00:38:29.928Z,80.07
2022-08-27T00:40:57.062Z,81.78
2022-08-27T00:43:31.317Z,77.32
2022-08-27T00:46:11.625Z,75.28
2022-08-27T00:48:38.773Z,74.15
2022-08-27T00:51:06.615Z,73.68
2022-08-27T00:53:36.205Z,82.38
2022-08-27T00:56:13.334Z,74.68
2022-08-27T00:58:45.609Z,77.10
2022-08-27T01:01:16.549Z,78.57
2022-08-27T01:03:47.756Z,78.10
2022-08-27T01:06:17.205Z,78.13
2022-08-27T01:08:50.801Z,80.57
2022-08-27T01:11:18.968Z,81.05
2022-08-27T01:13:59.626Z,122.22
2022-08-27T01:16:35.925Z,145.05
2022-08-27T01:19:14.573Z,141.82
2022-08-27T01:21:51.411Z,134.45
2022-08-27T01:24:35.854Z,173.77
2022-08-27T01:27:08.081Z,151.95
2022-08-27T01:29:41.477Z,172.98
2022-08-27T01:32:10.668Z,154.45
2022-08-27T01:34:38.362Z,120.05
2022-08-27T01:37:06.775Z,176.57
2022-08-27T01:39:39.674Z,187.52
2022-08-27T01:42:24.851Z,198.63
2022-08-27T01:44:58.825Z,187.15
2022-08-27T01:47:30.559Z,192.35
2022-08-27T01:50:00.458Z,185.73
2022-08-27T01:52:30.401Z,135.18
2022-08-27T01:54:58.416Z,167.02
2022-08-27T01:57:26.488Z,187.40
2022-08-27T01:59:57.052Z,175.20
2022-08-27T02:02:24.260Z,182.25
2022-08-27T02:04:52.294Z,177.93
2022-08-27T02:07:19.445Z,190.60
2022-08-27T02:09:46.427Z,200.25
2022-08-27T02:12:13.797Z,196.18
2022-08-27T02:14:40.791Z,189.07
2022-08-27T02:17:07.878Z,204.93
2022-08-27T02:19:35.079Z,212.10
2022-08-27T02:22:01.978Z,210.90
2022-08-27T02:24:29.378Z,175.25
2022-08-27T02:26:57.140Z,214.38
2022-08-27T02:29:25.506Z,231.82
2022-08-27T02:31:52.676Z,229.30
2022-08-27T02:34:19.590Z,232.43
2022-08-27T02:36:47.825Z,239.00
2022-08-27T02:39:14.836Z,234.98
2022-08-27T02:41:41.639Z,224.10
2022-08-27T02:44:10.410Z,224.82
2022-08-27T02:46:41.859Z,226.65
2022-08-27T02:49:09.726Z,225.02
2022-08-27T02:51:37.779Z,223.70
2022-08-27T02:54:06.243Z,225.15
2022-08-27T02:56:38.068Z,224.55
2022-08-27T02:59:05.820Z,216.32
2022-08-27T03:01:32.838Z,219.30
2022-08-27T03:04:01.125Z,218.43
2022-08-27T03:06:28.825Z,212.23
2022-08-27T03:08:55.751Z,217.02
2022-08-27T03:11:23.604Z,206.05
2022-08-27T03:13:51.535Z,195.77
2022-08-27T03:16:20.504Z,190.45
2022-08-27T03:18:47.497Z,192.63
2022-08-27T03:21:19.661Z,182.02
2022-08-27T03:23:48.715Z,192.05
2022-08-27T03:26:16.169Z,186.87
2022-08-27T03:28:43.671Z,189.32
2022-08-27T03:31:20.658Z,177.13
2022-08-27T03:33:47.872Z,171.80
2022-08-27T03:36:15.400Z,179.85
2022-08-27T03:38:42.401Z,182.98
2022-08-27T03:41:10.007Z,169.23
2022-08-27T03:43:37.278Z,174.05
2022-08-27T03:46:04.393Z,168.77
2022-08-27T03:48:32.111Z,175.35
2022-08-27T03:50:59.566Z,183.90
2022-08-27T03:53:26.709Z,169.70
2022-08-27T03:55:53.998Z,160.45
2022-08-27T03:58:21.189Z,160.48
2022-08-27T04:00:48.612Z,162.77
2022-08-27T04:03:16.025Z,166.77
2022-08-27T04:05:45.300Z,171.45
2022-08-27T04:08:13.576Z,183.38
2022-08-27T04:10:41.537Z,173.82
2022-08-27T04:13:08.599Z,167.95
2022-08-27T04:15:40.542Z,174.45
2022-08-27T04:18:07.759Z,176.75
2022-08-27T04:20:36.001Z,165.23
2022-08-27T04:23:05.222Z,173.75
2022-08-27T04:25:32.811Z,176.10
2022-08-27T04:28:00.166Z,176.65
2022-08-27T04:30:27.308Z,175.25
2022-08-27T04:32:54.489Z,177.85
2022-08-27T04:35:22.016Z,170.35
2022-08-27T04:37:48.927Z,183.80
2022-08-27T04:40:15.927Z,174.52
2022-08-27T04:42:44.739Z,180.88
2022-08-27T04:45:12.078Z,192.30
2022-08-27T04:47:38.931Z,207.45
2022-08-27T04:50:07.092Z,200.88
2022-08-27T04:52:35.220Z,203.77
2022-08-27T04:55:09.413Z,222.27
2022-08-27T04:57:38.124Z,220.73
2022-08-27T05:00:07.356Z,236.35
2022-08-27T05:02:34.624Z,234.50
2022-08-27T05:05:01.888Z,233.43
2022-08-27T05:07:30.057Z,228.50
2022-08-27T05:09:57.526Z,228.50
2022-08-27T05:12:29.348Z,235.88
2022-08-27T05:14:56.341Z,227.13
2022-08-27T05:17:23.662Z,234.27
2022-08-27T05:19:50.697Z,235.77
2022-08-27T05:22:17.547Z,227.43
2022-08-27T05:24:49.564Z,232.75
2022-08-27T05:27:17.867Z,234.30
2022-08-27T05:29:44.767Z,226.88
2022-08-27T05:32:12.126Z,238.02
2022-08-27T05:34:39.120Z,242.65
2022-08-27T05:37:06.452Z,228.93
2022-08-27T05:39:33.634Z,232.80
2022-08-27T05:42:00.572Z,230.45
2022-08-27T05:44:42.711Z,237.43
2022-08-27T05:47:10.471Z,231.18
2022-08-27T05:49:37.831Z,228.35
2022-08-27T05:52:08.895Z,226.98
2022-08-27T05:54:36.801Z,221.63
2022-08-27T05:57:03.851Z,213.07
2022-08-27T05:59:49.152Z,210.13
2022-08-27T06:02:16.516Z,203.98
2022-08-27T06:04:43.356Z,202.30
2022-08-27T06:07:11.099Z,200.73
2022-08-27T06:09:38.936Z,195.90
2022-08-27T06:12:06.630Z,200.93
2022-08-27T06:14:35.500Z,201.05
2022-08-27T06:17:03.522Z,191.00
2022-08-27T06:19:30.715Z,178.77
2022-08-27T06:22:09.589Z,181.73
2022-08-27T06:24:42.494Z,181.75
2022-08-27T06:27:12.777Z,174.70
2022-08-27T06:29:41.023Z,180.98
2022-08-27T06:32:09.647Z,178.10
2022-08-27T06:34:37.950Z,172.90
2022-08-27T06:37:05.930Z,170.73
2022-08-27T06:39:32.934Z,170.23
2022-08-27T06:41:59.964Z,160.65
2022-08-27T06:44:32.999Z,162.02
2022-08-27T06:47:00.040Z,166.52
2022-08-27T06:49:27.458Z,158.40
2022-08-27T06:51:54.943Z,165.88
2022-08-27T06:54:22.188Z,167.30
2022-08-27T06:56:50.217Z,174.70
2022-08-27T06:59:20.819Z,172.15
2022-08-27T07:01:51.472Z,165.55
2022-08-27T07:04:22.392Z,178.75
2022-08-27T07:06:54.952Z,182.13
2022-08-27T07:09:24.564Z,166.75
2022-08-27T07:11:51.510Z,170.35
2022-08-27T07:14:18.514Z,155.70
2022-08-27T07:16:45.751Z,139.15
2022-08-27T07:19:15.249Z,133.95
2022-08-27T07:21:44.306Z,120.75
2022-08-27T07:24:12.644Z,101.43
2022-08-27T07:26:43.114Z,106.03
2022-08-27T07:29:12.912Z,95.28
2022-08-27T07:31:40.034Z,88.18
2022-08-27T07:34:07.642Z,87.05
2022-08-27T07:36:36.011Z,86.28
2022-08-27T07:39:03.655Z,82.77
2022-08-27T07:41:31.963Z,89.70
2022-08-27T07:44:19.231Z,86.07
2022-08-27T07:46:48.696Z,80.57
2022-08-27T07:49:19.211Z,87.03
2022-08-27T07:51:46.910Z,85.57
2022-08-27T07:54:14.451Z,88.28
2022-08-27T07:56:41.866Z,78.50
2022-08-27T07:59:09.374Z,84.53
2022-08-27T08:01:36.860Z,83.75
2022-08-27T08:04:04.101Z,83.03
2022-08-27T08:06:31.300Z,77.13
2022-08-27T08:08:59.979Z,89.85
2022-08-27T08:11:27.030Z,87.13
2022-08-27T08:13:54.015Z,73.88
2022-08-27T08:16:28.284Z,68.00
2022-08-27T08:19:00.354Z,64.68
2022-08-27T08:21:27.734Z,69.72
2022-08-27T08:23:54.846Z,75.53
2022-08-27T08:26:23.280Z,76.35
2022-08-27T08:28:50.235Z,70.70
2022-08-27T08:31:17.114Z,69.47
2022-08-27T08:33:44.452Z,76.80
2022-08-27T08:36:13.744Z,76.63
2022-08-27T08:38:41.794Z,63.70
2022-08-27T08:41:40.346Z,59.28
2022-08-27T08:44:26.295Z,60.58
2022-08-27T08:46:59.634Z,55.65
2022-08-27T08:49:32.399Z,54.20
2022-08-27T08:52:19.248Z,42.72
2022-08-27T08:55:07.557Z,40.78
2022-08-27T08:57:43.837Z,37.58
2022-08-27T09:00:13.977Z,30.63
2022-08-27T09:02:51.219Z,35.70
2022-08-27T09:05:18.592Z,37.95
2022-08-27T09:08:15.154Z,25.52
2022-08-27T09:10:56.618Z,26.92
2022-08-27T09:13:58.745Z,25.95
2022-08-27T09:16:26.152Z,24.20
2022-08-27T09:18:53.874Z,18.00
2022-08-27T09:21:27.762Z,21.60
2022-08-27T09:24:05.409Z,19.00
2022-08-27T09:26:37.238Z,20.10
2022-08-27T09:29:17.207Z,22.00
2022-08-27T09:31:54.130Z,21.08
2022-08-27T09:34:22.556Z,20.15
2022-08-27T09:37:08.284Z,22.27
2022-08-27T09:39:50.294Z,19.88
2022-08-27T09:42:26.650Z,17.75
2022-08-27T09:44:54.981Z,20.90
2022-08-27T09:47:21.972Z,25.13
2022-08-27T09:49:49.364Z,20.38
2022-08-27T09:52:38.049Z,28.73
2022-08-27T09:55:07.272Z,24.65
2022-08-27T10:00:14.075Z,22.50
2022-08-27T10:02:56.164Z,22.15
2022-08-27T10:05:30.405Z,20.73
2022-08-27T10:08:35.398Z,18.70
2022-08-27T10:11:07.421Z,35.38
2022-08-27T10:13:46.885Z,22.58
2022-08-27T10:16:36.672Z,20.17
2022-08-27T10:19:16.872Z,20.80
2022-08-27T10:21:51.147Z,24.40
2022-08-27T10:24:33.370Z,23.25
2022-08-27T10:27:06.058Z,23.95
2022-08-27T10:30:10.297Z,21.45
2022-08-27T10:32:45.829Z,20.42
2022-08-27T10:35:26.734Z,22.98
2022-08-27T10:38:30.291Z,23.00
2022-08-27T10:41:15.734Z,21.30
2022-08-27T10:44:13.672Z,24.05
2022-08-27T10:47:13.168Z,19.63
2022-08-27T10:50:03.862Z,22.85
2022-08-27T10:52:51.610Z,20.55
2022-08-27T10:55:24.654Z,23.50
2022-08-27T10:58:04.622Z,24.50
2022-08-27T11:00:56.382Z,36.42
2022-08-27T11:03:32.181Z,22.85
2022-08-27T11:06:14.382Z,18.90
2022-08-27T11:08:50.122Z,19.17
2022-08-27T11:12:12.766Z,21.25
2022-08-27T11:14:47.893Z,20.95
2022-08-27T11:17:25.286Z,18.95
2022-08-27T11:19:59.750Z,19.65
2022-08-27T11:23:00.860Z,23.05
2022-08-27T11:25:36.014Z,23.02
2022-08-27T11:28:05.557Z,20.40
2022-08-27T11:30:42.204Z,18.77
2022-08-27T11:33:35.545Z,21.73
2022-08-27T11:36:08.763Z,22.15
2022-08-27T11:39:02.948Z,22.52
2022-08-27T11:42:04.257Z,24.80
2022-08-27T11:44:31.591Z,27.10
2022-08-27T11:47:13.795Z,29.25
2022-08-27T11:49:48.039Z,30.50
2022-08-27T11:52:36.365Z,29.80
2022-08-27T11:55:21.619Z,26.52
2022-08-27T11:58:07.585Z,28.67
2022-08-27T12:00:38.669Z,29.95
2022-08-27T12:03:23.969Z,30.23
2022-08-27T12:05:54.074Z,33.10
2022-08-27T12:08:24.849Z,33.97
2022-08-27T12:11:08.443Z,34.60
2022-08-27T12:13:53.249Z,38.78
2022-08-27T12:16:32.354Z,33.72
2022-08-27T12:19:11.130Z,35.40
2022-08-27T12:22:10.704Z,33.65
2022-08-27T12:24:43.557Z,32.70
2022-08-27T12:27:26.489Z,38.92
2022-08-27T12:30:00.644Z,41.80
2022-08-27T12:32:33.241Z,45.05
2022-08-27T12:35:23.640Z,37.83
2022-08-27T12:38:04.394Z,42.60
2022-08-27T12:41:03.906Z,41.58
2022-08-27T12:43:35.127Z,41.28
2022-08-27T12:46:07.656Z,40.00
2022-08-27T12:48:40.533Z,43.95
2022-08-27T12:51:13.784Z,43.85
2022-08-27T12:53:52.917Z,44.33
2022-08-27T12:59:31.923Z,42.83
2022-08-27T13:02:05.149Z,40.65
2022-08-27T13:04:34.338Z,41.72
2022-08-27T13:09:36.888Z,45.17
2022-08-27T13:12:14.777Z,39.97
2022-08-27T13:14:42.064Z,49.88
2022-08-27T13:17:15.893Z,45.10
2022-08-27T13:19:51.456Z,41.90
2022-08-27T13:22:29.193Z,44.60
2022-08-27T13:24:57.127Z,43.47
2022-08-27T13:27:31.745Z,48.28
2022-08-27T13:30:03.060Z,46.78
2022-08-27T13:32:31.065Z,51.30
2022-08-27T13:35:00.395Z,47.60
2022-08-27T13:37:37.900Z,46.03
2022-08-27T13:40:06.364Z,45.78
2022-08-27T13:42:33.951Z,47.28
2022-08-27T13:45:07.942Z,53.33
2022-08-27T13:47:49.175Z,55.80
2022-08-27T13:50:28.518Z,48.60
2022-08-27T13:53:31.422Z,49.20
2022-08-27T13:55:59.454Z,52.50
2022-08-27T13:58:31.183Z,53.15
2022-08-27T14:01:29.066Z,47.92
2022-08-27T14:04:04.469Z,52.20
2022-08-27T14:06:44.188Z,50.80
2022-08-27T14:09:28.303Z,51.60
2022-08-27T14:12:10.927Z,55.45
2022-08-27T14:14:41.352Z,52.05
2022-08-27T14:17:26.793Z,48.20
2022-08-27T14:20:01.394Z,52.10
2022-08-27T14:22:28.736Z,51.55
2022-08-27T14:24:55.617Z,55.30
2022-08-27T14:27:22.875Z,56.53
2022-08-27T14:29:52.133Z,51.38
2022-08-27T14:32:19.503Z,53.65
2022-08-27T14:34:46.794Z,53.88
2022-08-27T14:37:14.803Z,52.50
2022-08-27T14:39:43.571Z,50.08
2022-08-27T14:42:12.778Z,52.33
2022-08-27T14:44:40.092Z,54.10
2022-08-27T14:47:09.643Z,56.00
2022-08-27T14:49:40.330Z,55.05
2022-08-27T14:52:09.564Z,59.80
2022-08-27T14:54:36.692Z,52.08
2022-08-27T14:57:05.441Z,54.88
2022-08-27T14:59:33.538Z,58.35
2022-08-27T15:02:02.684Z,62.47
2022-08-27T15:04:30.851Z,59.17
2022-08-27T15:06:58.302Z,63.63
2022-08-27T15:09:25.312Z,65.30
2022-08-27T15:11:53.304Z,63.20
2022-08-27T15:14:31.582Z,62.42
2022-08-27T15:17:02.651Z,64.95
2022-08-27T15:19:49.430Z,63.35
2022-08-27T15:22:20.498Z,63.83
2022-08-27T15:24:58.166Z,66.43
2022-08-27T15:27:38.231Z,64.78
2022-08-27T15:30:11.793Z,66.93
2022-08-27T15:32:45.207Z,66.15
2022-08-27T15:35:16.264Z,72.25
2022-08-27T15:37:44.533Z,77.15
2022-08-27T15:40:14.712Z,69.35
2022-08-27T15:42:42.044Z,73.57
2022-08-27T15:45:11.554Z,73.07
2022-08-27T15:47:39.281Z,70.32
2022-08-27T15:50:07.342Z,78.30
2022-08-27T15:52:40.929Z,76.18
2022-08-27T15:55:40.078Z,74.03
2022-08-27T15:58:08.885Z,69.20
2022-08-27T16:00:37.454Z,69.97
2022-08-27T16:03:08.666Z,73.53
2022-08-27T16:05:38.117Z,74.90
2022-08-27T16:08:05.597Z,71.53
2022-08-27T16:10:33.692Z,71.85
2022-08-27T16:13:00.618Z,70.82
2022-08-27T16:15:28.297Z,66.60
2022-08-27T16:17:59.332Z,71.80
2022-08-27T16:20:27.156Z,70.85
2022-08-27T16:22:54.487Z,75.32
2022-08-27T16:25:23.584Z,79.65
2022-08-27T16:27:51.626Z,82.45
2022-08-27T16:30:20.209Z,85.30
2022-08-27T16:32:49.405Z,77.00
2022-08-27T16:37:44.316Z,78.90
2022-08-27T16:40:13.484Z,81.82
2022-08-27T16:42:44.432Z,73.18
2022-08-27T16:45:14.213Z,78.47
2022-08-27T16:48:01.316Z,79.88
2022-08-27T16:50:34.893Z,81.00
2022-08-27T16:53:07.632Z,77.22
2022-08-27T16:55:35.819Z,82.47
2022-08-27T16:58:02.634Z,83.43
2022-08-27T17:00:30.179Z,85.95
2022-08-27T17:03:05.467Z,87.90
2022-08-27T17:05:34.914Z,80.63
2022-08-27T17:08:02.944Z,86.72
2022-08-27T17:10:35.675Z,86.60
2022-08-27T17:13:02.775Z,86.40
2022-08-27T17:15:29.827Z,85.22
2022-08-27T17:17:58.071Z,83.38
2022-08-27T17:20:25.757Z,76.78
2022-08-27T17:22:57.089Z,72.78
2022-08-27T17:25:30.138Z,73.45
2022-08-27T17:28:00.199Z,76.10
2022-08-27T17:30:28.194Z,78.47
2022-08-27T17:32:55.189Z,81.10
2022-08-27T17:35:22.069Z,83.60
2022-08-27T17:37:49.181Z,86.80
2022-08-27T17:40:16.040Z,85.40
2022-08-27T17:42:43.006Z,86.68
2022-08-27T17:45:10.851Z,73.53
2022-08-27T17:47:37.926Z,85.78
2022-08-27T17:50:05.827Z,78.00
2022-08-27T17:52:34.430Z,74.97
2022-08-27T17:55:01.313Z,68.45
2022-08-27T17:57:40.495Z,89.78
2022-08-27T18:00:11.217Z,78.32
2022-08-27T18:02:44.437Z,88.70
2022-08-27T18:05:13.916Z,81.25
2022-08-27T18:10:10.160Z,90.72
2022-08-27T18:12:40.997Z,80.20
2022-08-27T18:15:10.081Z,80.50
2022-08-27T18:17:42.573Z,81.72
2022-08-27T18:20:13.265Z,80.00
2022-08-27T18:22:41.120Z,76.80
2022-08-27T18:25:17.983Z,79.60
2022-08-27T18:27:47.318Z,73.47
2022-08-27T18:30:14.710Z,75.22
2022-08-27T18:32:43.812Z,85.05
2022-08-27T18:35:17.789Z,69.97
2022-08-27T18:37:45.482Z,71.40
2022-08-27T18:40:14.517Z,82.18
2022-08-27T18:42:42.104Z,79.00
2022-08-27T18:45:13.293Z,88.10
2022-08-27T18:47:40.691Z,77.35
2022-08-27T18:50:09.793Z,73.82
2022-08-27T18:52:46.735Z,70.30
2022-08-27T18:55:17.614Z,79.90
2022-08-27T18:57:44.590Z,75.22
2022-08-27T19:00:14.571Z,67.80
2022-08-27T19:02:43.001Z,64.78
2022-08-27T19:05:11.392Z,65.28
2022-08-27T19:07:38.701Z,69.85
2022-08-27T19:10:07.885Z,64.68
2022-08-27T19:12:34.856Z,69.05
2022-08-27T19:15:04.430Z,66.30
2022-08-27T19:17:37.948Z,74.50
2022-08-27T19:20:06.588Z,63.25
2022-08-27T19:22:33.945Z,65.97
2022-08-27T19:25:01.165Z,73.78
2022-08-27T19:27:30.024Z,64.18
2022-08-27T19:29:57.235Z,67.95
2022-08-27T19:32:24.232Z,100.07
2022-08-27T19:34:51.330Z,55.50
2022-08-27T19:37:25.498Z,69.78
2022-08-27T19:39:52.960Z,62.67
2022-08-27T19:42:20.045Z,66.45
2022-08-27T19:44:47.458Z,66.15
2022-08-27T19:47:21.395Z,71.03
2022-08-27T19:49:49.828Z,62.45
2022-08-27T19:52:16.711Z,62.03
2022-08-27T19:55:09.789Z,66.55
2022-08-27T19:57:30.903Z,65.82
2022-08-27T19:59:57.909Z,64.57
2022-08-27T20:02:25.043Z,61.10
2022-08-27T20:05:16.297Z,60.67
2022-08-27T20:07:39.420Z,57.67
2022-08-27T20:10:08.182Z,67.30
2022-08-27T20:12:36.995Z,65.13
2022-08-27T20:15:06.353Z,63.10
2022-08-27T20:17:35.549Z,63.53
2022-08-27T20:20:03.151Z,63.20
2022-08-27T20:22:30.418Z,57.55
2022-08-27T20:24:57.553Z,58.78
2022-08-27T20:27:25.145Z,51.47
2022-08-27T20:29:54.670Z,51.13
2022-08-27T20:32:24.796Z,51.30
2022-08-27T20:34:55.253Z,47.58
2022-08-27T20:37:22.590Z,51.95
2022-08-27T20:39:50.572Z,46.50
2022-08-27T20:42:19.785Z,55.78
2022-08-27T20:44:47.361Z,50.38
2022-08-27T20:47:16.154Z,46.75
2022-08-27T20:49:44.809Z,52.05
2022-08-27T20:52:13.114Z,49.47
2022-08-27T20:54:41.188Z,48.10
2022-08-27T20:57:11.546Z,47.00
2022-08-27T20:59:59.160Z,58.92
2022-08-27T21:02:30.093Z,48.22
2022-08-27T21:04:58.041Z,51.95
2022-08-27T21:07:25.741Z,51.25
2022-08-27T21:09:57.210Z,50.22
2022-08-27T21:12:26.745Z,46.88
2022-08-27T21:14:58.057Z,46.30
2022-08-27T21:17:33.785Z,45.78
2022-08-27T21:20:01.021Z,45.00
2022-08-27T21:22:28.549Z,45.30
2022-08-27T21:24:55.623Z,45.63
2022-08-27T21:29:52.637Z,37.88
2022-08-27T21:32:19.854Z,37.58
2022-08-27T21:34:47.143Z,40.85
2022-08-27T21:37:17.398Z,45.63
2022-08-27T21:39:44.723Z,44.78
2022-08-27T21:42:12.926Z,39.17
2022-08-27T21:44:40.356Z,40.38
2022-08-27T21:47:08.050Z,34.35
2022-08-27T21:49:35.655Z,40.25
2022-08-27T21:52:06.078Z,38.88
2022-08-27T21:54:38.012Z,37.05
2022-08-27T21:57:06.420Z,39.95
2022-08-27T21:59:40.327Z,38.88
2022-08-27T22:02:28.873Z,43.92
2022-08-27T22:04:56.817Z,46.03
2022-08-27T22:07:24.398Z,48.85
2022-08-27T22:09:51.384Z,53.85
2022-08-27T22:12:18.265Z,52.55
2022-08-27T22:14:45.475Z,54.78
2022-08-27T22:17:15.889Z,54.13
2022-08-27T22:19:43.169Z,58.97
2022-08-27T22:22:10.208Z,60.13
2022-08-27T22:24:37.609Z,67.97
2022-08-27T22:27:07.839Z,73.47
2022-08-27T22:29:34.877Z,99.60
2022-08-27T22:32:01.686Z,101.30
2022-08-27T22:34:28.881Z,106.30
2022-08-27T22:36:55.667Z,90.35
2022-08-27T22:39:23.078Z,134.13
2022-08-27T22:41:51.198Z,122.43
2022-08-27T22:44:18.292Z,112.05
2022-08-27T22:46:45.604Z,111.28
2022-08-27T22:49:13.017Z,103.78
2022-08-27T22:51:39.963Z,104.78
2022-08-27T22:54:08.012Z,110.43
2022-08-27T22:56:35.863Z,98.63
2022-08-27T22:59:02.886Z,107.05
2022-08-27T23:01:36.451Z,98.43
2022-08-27T23:04:04.557Z,113.95
2022-08-27T23:06:31.911Z,105.60
2022-08-27T23:08:59.033Z,103.45
2022-08-27T23:11:25.952Z,101.25
2022-08-27T23:13:53.253Z,96.40
2022-08-27T23:16:21.010Z,92.72
2022-08-27T23:18:47.886Z,88.60
2022-08-27T23:21:14.821Z,80.00
2022-08-27T23:23:41.885Z,84.25
2022-08-27T23:26:27.621Z,85.45
2022-08-27T23:28:55.015Z,81.72
2022-08-27T23:31:22.714Z,83.43
2022-08-27T23:33:53.900Z,79.78
2022-08-27T23:36:21.391Z,82.90
2022-08-27T23:38:48.250Z,77.22
2022-08-27T23:41:18.672Z,79.40
2022-08-27T23:43:48.042Z,77.45
2022-08-27T23:46:14.966Z,77.03
2022-08-27T23:48:41.816Z,82.43
2022-08-27T23:51:09.736Z,75.90
2022-08-27T23:53:37.650Z,79.43
2022-08-27T23:56:05.468Z,83.40
2022-08-27T23:58:32.860Z,83.07
